createdAt,value
2018-10-02T00:01:07.077Z,7.96
2018-10-02T00:03:35.231Z,7.98
2018-10-02T00:06:03.247Z,7.98
2018-10-02T00:08:31.248Z,8.01
2018-10-02T00:11:04.663Z,8.05
2018-10-02T00:13:37.976Z,8.08
2018-10-02T00:16:06.638Z,8.13
2018-10-02T00:18:34.803Z,8.14
2018-10-02T00:21:02.806Z,8.16
2018-10-02T00:23:30.833Z,8.21
2018-10-02T00:25:58.846Z,8.21
2018-10-02T00:28:26.835Z,8.23
2018-10-02T00:30:54.886Z,8.25
2018-10-02T00:33:22.958Z,8.30
2018-10-02T00:35:50.977Z,8.30
2018-10-02T00:38:18.979Z,8.26
2018-10-02T00:40:46.994Z,8.27
2018-10-02T00:43:14.993Z,8.24
2018-10-02T00:45:43.006Z,8.24
2018-10-02T00:48:11.016Z,8.25
2018-10-02T00:50:39.017Z,8.23
2018-10-02T00:53:07.028Z,8.22
2018-10-02T00:55:35.059Z,8.24
2018-10-02T00:58:03.223Z,8.27
2018-10-02T01:00:31.223Z,8.23
2018-10-02T01:02:59.231Z,8.19
2018-10-02T01:05:27.240Z,8.18
2018-10-02T01:07:55.255Z,8.20
2018-10-02T01:10:23.286Z,8.23
2018-10-02T01:12:51.303Z,8.20
2018-10-02T01:15:19.295Z,8.17
2018-10-02T01:17:47.315Z,8.15
2018-10-02T01:20:15.311Z,8.16
2018-10-02T01:22:43.303Z,8.17
2018-10-02T01:25:11.302Z,8.18
2018-10-02T01:27:39.322Z,8.21
2018-10-02T01:30:07.388Z,8.22
2018-10-02T01:32:35.627Z,8.25
2018-10-02T01:35:03.792Z,8.29
2018-10-02T01:37:31.799Z,8.33
2018-10-02T01:39:59.814Z,8.34
2018-10-02T01:42:27.824Z,8.35
2018-10-02T01:44:55.822Z,8.35
2018-10-02T01:47:23.818Z,8.37
2018-10-02T01:49:51.832Z,8.37
2018-10-02T01:52:19.830Z,8.39
2018-10-02T01:54:47.826Z,8.40
2018-10-02T01:57:15.842Z,8.47
2018-10-02T01:59:43.859Z,8.52
2018-10-02T02:02:11.858Z,8.58
2018-10-02T02:04:40.027Z,8.58
2018-10-02T02:07:08.031Z,8.62
2018-10-02T02:09:36.042Z,8.63
2018-10-02T02:12:04.962Z,8.66
2018-10-02T02:14:32.982Z,8.69
2018-10-02T02:17:00.986Z,8.72
2018-10-02T02:19:29.150Z,8.74
2018-10-02T02:21:57.160Z,8.75
2018-10-02T02:24:25.155Z,8.75
2018-10-02T02:26:53.188Z,8.78
2018-10-02T02:29:21.187Z,8.82
2018-10-02T02:31:49.175Z,8.84
2018-10-02T02:34:17.215Z,8.88
2018-10-02T02:36:45.221Z,8.92
2018-10-02T02:39:13.211Z,8.96
2018-10-02T02:41:41.215Z,8.95
2018-10-02T02:44:09.223Z,8.98
2018-10-02T02:46:37.210Z,8.97
2018-10-02T02:49:10.640Z,9.01
2018-10-02T02:51:38.650Z,9.02
2018-10-02T02:54:06.687Z,9.03
2018-10-02T02:56:34.691Z,9.05
2018-10-02T02:59:03.514Z,9.03
2018-10-02T03:01:31.535Z,9.08
2018-10-02T03:03:59.920Z,9.11
2018-10-02T03:06:27.958Z,9.13
2018-10-02T03:08:56.287Z,9.15
2018-10-02T03:11:24.293Z,9.18
2018-10-02T03:13:52.291Z,9.22
2018-10-02T03:16:20.607Z,9.22
2018-10-02T03:18:48.611Z,9.24
2018-10-02T03:21:16.685Z,9.28
2018-10-02T03:23:44.703Z,9.33
2018-10-02T03:26:12.882Z,9.36
2018-10-02T03:28:40.897Z,9.38
2018-10-02T03:31:08.972Z,9.38
2018-10-02T03:33:37.010Z,9.35
2018-10-02T03:36:05.083Z,9.39
2018-10-02T03:38:33.168Z,9.40
2018-10-02T03:41:01.167Z,9.44
2018-10-02T03:43:29.299Z,9.47
2018-10-02T03:45:57.310Z,9.51
2018-10-02T03:48:25.534Z,9.51
2018-10-02T03:50:53.832Z,9.53
2018-10-02T03:53:21.891Z,9.52
2018-10-02T03:55:49.911Z,9.56
2018-10-02T03:58:17.919Z,9.53
2018-10-02T04:00:46.132Z,9.53
2018-10-02T04:03:14.223Z,9.53
2018-10-02T04:05:42.275Z,9.55
2018-10-02T04:08:10.283Z,9.55
2018-10-02T04:10:38.298Z,9.59
2018-10-02T04:13:06.817Z,9.59
2018-10-02T04:15:34.759Z,9.61
2018-10-02T04:18:02.970Z,9.59
2018-10-02T04:20:31.104Z,9.63
2018-10-02T04:22:59.127Z,9.64
2018-10-02T04:25:27.143Z,9.63
2018-10-02T04:27:55.178Z,9.66
2018-10-02T04:30:23.158Z,9.69
2018-10-02T04:32:51.171Z,9.68
2018-10-02T04:35:19.190Z,9.67
2018-10-02T04:37:47.211Z,9.69
2018-10-02T04:40:15.222Z,9.70
2018-10-02T04:42:43.223Z,9.70
2018-10-02T04:45:11.235Z,9.71
2018-10-02T04:47:39.270Z,9.73
2018-10-02T04:50:07.531Z,9.76
2018-10-02T04:52:35.578Z,9.75
2018-10-02T04:55:04.719Z,9.74
2018-10-02T04:57:32.657Z,9.71
2018-10-02T05:00:00.731Z,9.70
2018-10-02T05:02:28.866Z,9.69
2018-10-02T05:04:56.819Z,9.67
2018-10-02T05:07:24.838Z,9.67
2018-10-02T05:09:52.856Z,9.65
2018-10-02T05:12:20.965Z,9.59
2018-10-02T05:14:48.980Z,9.62
2018-10-02T05:17:16.977Z,9.58
2018-10-02T05:19:44.984Z,9.51
2018-10-02T05:22:13.057Z,9.48
2018-10-02T05:24:41.141Z,9.44
2018-10-02T05:27:09.200Z,9.40
2018-10-02T05:29:37.164Z,9.37
2018-10-02T05:32:05.343Z,9.34
2018-10-02T05:34:33.408Z,9.34
2018-10-02T05:37:01.483Z,9.35
2018-10-02T05:39:29.564Z,9.35
2018-10-02T05:41:57.636Z,9.31
2018-10-02T05:44:25.992Z,9.29
2018-10-02T05:46:54.001Z,9.24
2018-10-02T05:49:22.023Z,9.23
2018-10-02T05:51:50.225Z,9.24
2018-10-02T05:54:18.236Z,9.26
2018-10-02T05:56:46.375Z,9.27
2018-10-02T05:59:14.597Z,9.26
2018-10-02T06:01:42.617Z,9.23
2018-10-02T06:04:10.872Z,9.25
2018-10-02T06:06:38.973Z,9.25
2018-10-02T06:09:09.076Z,9.27
2018-10-02T06:11:37.315Z,9.29
2018-10-02T06:14:05.789Z,9.30
2018-10-02T06:16:33.838Z,9.31
2018-10-02T06:19:02.244Z,9.32
2018-10-02T06:21:30.289Z,9.29
2018-10-02T06:23:58.539Z,9.30
2018-10-02T06:26:26.592Z,9.27
2018-10-02T06:28:54.731Z,9.29
2018-10-02T06:31:22.755Z,9.27
2018-10-02T06:33:50.792Z,9.26
2018-10-02T06:36:18.795Z,9.24
2018-10-02T06:38:47.709Z,9.28
2018-10-02T06:41:15.714Z,9.25
2018-10-02T06:43:43.747Z,9.28
2018-10-02T06:46:11.832Z,9.30
2018-10-02T06:48:39.842Z,9.29
2018-10-02T06:51:08.178Z,9.35
2018-10-02T06:53:36.528Z,9.33
2018-10-02T06:56:05.045Z,9.35
2018-10-02T06:58:33.080Z,9.35
2018-10-02T07:01:01.113Z,9.37
2018-10-02T07:03:29.124Z,9.37
2018-10-02T07:05:57.256Z,9.42
2018-10-02T07:08:25.293Z,9.42
2018-10-02T07:10:53.311Z,9.48
2018-10-02T07:13:21.332Z,9.46
2018-10-02T07:15:49.536Z,9.47
2018-10-02T07:18:17.551Z,9.48
2018-10-02T07:20:45.678Z,9.49
2018-10-02T07:23:13.601Z,9.45
2018-10-02T07:25:41.619Z,9.48
2018-10-02T07:28:09.653Z,9.49
2018-10-02T07:30:37.722Z,9.46
2018-10-02T07:33:05.788Z,9.47
2018-10-02T07:35:33.695Z,9.47
2018-10-02T07:38:01.732Z,9.48
2018-10-02T07:40:29.736Z,9.46
2018-10-02T07:42:58.585Z,9.46
2018-10-02T07:45:26.596Z,9.46
2018-10-02T07:47:54.788Z,9.43
2018-10-02T07:50:22.830Z,9.48
2018-10-02T07:52:50.791Z,9.52
2018-10-02T07:55:18.811Z,9.51
2018-10-02T07:57:46.832Z,9.54
2018-10-02T08:00:15.116Z,9.56
2018-10-02T08:02:43.142Z,9.62
2018-10-02T08:05:11.286Z,9.65
2018-10-02T08:07:39.253Z,9.66
2018-10-02T08:10:07.274Z,9.69
2018-10-02T08:12:35.291Z,9.70
2018-10-02T08:15:03.559Z,9.73
2018-10-02T08:17:31.603Z,9.77
2018-10-02T08:19:59.697Z,9.78
2018-10-02T08:22:27.592Z,9.85
2018-10-02T08:24:55.992Z,9.89
2018-10-02T08:27:24.081Z,9.94
2018-10-02T08:29:52.108Z,9.98
2018-10-02T08:32:20.068Z,10.05
2018-10-02T08:34:48.076Z,10.14
2018-10-02T08:37:16.163Z,10.16
2018-10-02T08:39:44.172Z,10.19
2018-10-02T08:42:12.180Z,10.23
2018-10-02T08:44:40.439Z,10.28
2018-10-02T08:47:08.436Z,10.31
2018-10-02T08:49:36.467Z,10.37
2018-10-02T08:52:05.102Z,10.42
2018-10-02T08:54:32.988Z,10.49
2018-10-02T08:57:01.003Z,10.50
2018-10-02T08:59:29.035Z,10.55
2018-10-02T09:01:57.048Z,10.60
2018-10-02T09:04:25.067Z,10.60
2018-10-02T09:06:58.410Z,10.65
2018-10-02T09:09:26.614Z,10.71
2018-10-02T09:11:54.680Z,10.75
2018-10-02T09:14:22.708Z,10.76
2018-10-02T09:16:50.785Z,10.77
2018-10-02T09:19:18.888Z,10.78
2018-10-02T09:21:47.137Z,10.78
2018-10-02T09:24:15.084Z,10.85
2018-10-02T09:26:43.116Z,10.89
2018-10-02T09:29:11.194Z,10.89
2018-10-02T09:31:44.644Z,10.91
2018-10-02T09:34:18.191Z,10.91
2018-10-02T09:36:51.522Z,10.94
2018-10-02T09:39:24.900Z,10.91
2018-10-02T09:44:32.664Z,10.96
2018-10-02T09:47:00.852Z,10.98
2018-10-02T09:49:28.868Z,10.99
2018-10-02T09:51:57.013Z,11.01
2018-10-02T09:54:25.053Z,11.04
2018-10-02T09:56:53.201Z,11.08
2018-10-02T09:59:21.179Z,11.10
2018-10-02T10:02:09.778Z,11.11
2018-10-02T10:04:37.816Z,11.10
2018-10-02T10:07:06.005Z,11.16
2018-10-02T10:09:34.041Z,11.17
2018-10-02T10:12:02.079Z,11.20
2018-10-02T10:14:30.120Z,11.17
2018-10-02T10:16:58.206Z,11.20
2018-10-02T10:19:26.361Z,11.21
2018-10-02T10:22:10.342Z,11.25
2018-10-02T10:24:38.479Z,11.28
2018-10-02T10:27:06.839Z,11.27
2018-10-02T10:29:34.926Z,11.26
2018-10-02T10:32:03.383Z,11.27
2018-10-02T10:37:10.971Z,11.33
2018-10-02T10:39:38.988Z,11.37
2018-10-02T10:42:07.067Z,11.38
2018-10-02T10:44:35.108Z,11.41
2018-10-02T10:47:03.503Z,11.46
2018-10-02T10:49:31.464Z,11.49
2018-10-02T10:51:59.557Z,11.53
2018-10-02T10:54:27.596Z,11.57
2018-10-02T10:56:55.663Z,11.66
2018-10-02T10:59:23.687Z,11.70
2018-10-02T11:01:51.819Z,11.73
2018-10-02T11:04:19.859Z,11.74
2018-10-02T11:06:48.012Z,11.79
2018-10-02T11:09:16.081Z,11.79
2018-10-02T11:11:44.044Z,11.84
2018-10-02T11:14:12.373Z,11.92
2018-10-02T11:16:40.556Z,11.95
2018-10-02T11:19:14.977Z,11.98
2018-10-02T11:21:43.017Z,12.06
2018-10-02T11:24:11.240Z,12.07
2018-10-02T11:26:39.272Z,12.10
2018-10-02T11:29:07.364Z,12.15
2018-10-02T11:31:35.467Z,12.17
2018-10-02T11:34:03.494Z,12.19
2018-10-02T11:36:31.540Z,12.19
2018-10-02T11:39:00.155Z,12.21
2018-10-02T11:41:28.195Z,12.26
2018-10-02T11:43:56.461Z,12.27
2018-10-02T11:46:24.429Z,12.29
2018-10-02T11:48:52.536Z,12.35
2018-10-02T11:51:20.611Z,12.39
2018-10-02T11:53:48.627Z,12.41
2018-10-02T11:56:16.640Z,12.44
2018-10-02T11:58:44.671Z,12.44
2018-10-02T12:01:12.770Z,12.49
2018-10-02T12:03:40.716Z,12.49
2018-10-02T12:06:09.320Z,12.47
2018-10-02T12:08:37.360Z,12.53
2018-10-02T12:11:05.468Z,12.57
2018-10-02T12:13:33.759Z,12.64
2018-10-02T12:16:01.915Z,12.67
2018-10-02T12:18:29.931Z,12.70
2018-10-02T12:20:57.961Z,12.77
2018-10-02T12:23:26.135Z,12.81
2018-10-02T12:25:54.383Z,12.87
2018-10-02T12:28:22.460Z,12.89
2018-10-02T12:30:50.524Z,12.95
2018-10-02T12:33:18.540Z,13.01
2018-10-02T12:35:46.783Z,13.06
2018-10-02T12:38:14.857Z,13.11
2018-10-02T12:40:42.952Z,13.17
2018-10-02T12:43:11.307Z,13.24
2018-10-02T12:45:39.380Z,13.30
2018-10-02T12:48:07.472Z,13.38
2018-10-02T12:50:35.532Z,13.46
2018-10-02T12:53:03.599Z,13.50
2018-10-02T12:55:31.672Z,13.60
2018-10-02T12:57:59.756Z,13.72
2018-10-02T13:00:27.803Z,13.83
2018-10-02T13:02:55.820Z,13.95
2018-10-02T13:05:23.944Z,14.05
2018-10-02T13:07:52.067Z,14.16
2018-10-02T13:10:20.100Z,14.27
2018-10-02T13:12:48.162Z,14.39
2018-10-02T13:15:16.240Z,14.52
2018-10-02T13:17:44.600Z,14.63
2018-10-02T13:20:12.611Z,14.74
2018-10-02T13:22:40.643Z,14.85
2018-10-02T13:25:08.697Z,14.94
2018-10-02T13:27:36.697Z,15.04
2018-10-02T13:30:06.078Z,15.11
2018-10-02T13:32:34.126Z,15.14
2018-10-02T13:35:02.209Z,15.15
2018-10-02T13:37:30.248Z,15.17
2018-10-02T13:39:58.267Z,15.21
2018-10-02T13:42:26.288Z,15.27
2018-10-02T13:44:54.317Z,15.35
2018-10-02T13:47:22.345Z,15.43
2018-10-02T13:49:51.138Z,15.50
2018-10-02T13:52:19.312Z,15.63
2018-10-02T13:54:47.696Z,15.71
2018-10-02T13:57:16.503Z,15.81
2018-10-02T13:59:44.533Z,15.84
2018-10-02T14:02:12.636Z,15.91
2018-10-02T14:04:41.351Z,15.95
2018-10-02T14:07:09.586Z,15.94
2018-10-02T14:09:37.607Z,15.97
2018-10-02T14:12:05.633Z,15.97
2018-10-02T14:14:35.467Z,15.91
2018-10-02T14:17:03.495Z,15.92
2018-10-02T14:19:32.466Z,15.91
2018-10-02T14:22:00.772Z,15.86
2018-10-02T14:24:29.271Z,15.82
2018-10-02T14:26:57.291Z,15.83
2018-10-02T14:29:25.424Z,15.81
2018-10-02T14:31:53.463Z,15.80
2018-10-02T14:34:22.096Z,15.79
2018-10-02T14:36:50.100Z,15.76
2018-10-02T14:39:18.276Z,15.77
2018-10-02T14:41:46.382Z,15.78
2018-10-02T14:44:14.472Z,15.82
2018-10-02T14:46:42.528Z,15.92
2018-10-02T14:49:10.549Z,16.11
2018-10-02T14:51:38.676Z,16.28
2018-10-02T14:54:06.756Z,16.46
2018-10-02T14:56:34.788Z,16.59
2018-10-02T14:59:04.168Z,16.68
2018-10-02T15:01:32.195Z,16.66
2018-10-02T15:04:00.216Z,16.59
2018-10-02T15:06:28.255Z,16.58
2018-10-02T15:08:56.388Z,16.56
2018-10-02T15:11:24.449Z,16.53
2018-10-02T15:13:52.484Z,16.50
2018-10-02T15:16:20.499Z,16.56
2018-10-02T15:18:48.525Z,16.58
2018-10-02T15:21:16.544Z,16.68
2018-10-02T15:23:44.567Z,16.68
2018-10-02T15:26:12.875Z,16.67
2018-10-02T15:28:40.964Z,16.63
2018-10-02T15:31:08.993Z,16.62
2018-10-02T15:33:37.392Z,16.55
2018-10-02T15:36:05.424Z,16.47
2018-10-02T15:38:33.464Z,16.50
2018-10-02T15:41:01.922Z,16.44
2018-10-02T15:43:29.948Z,16.44
2018-10-02T15:45:57.980Z,16.37
2018-10-02T15:48:26.024Z,16.36
2018-10-02T15:50:54.089Z,16.28
2018-10-02T15:53:22.085Z,16.27
2018-10-02T15:55:50.109Z,16.25
2018-10-02T15:58:18.135Z,16.20
2018-10-02T16:00:46.480Z,16.18
2018-10-02T16:03:14.525Z,16.15
2018-10-02T16:05:42.541Z,16.13
2018-10-02T16:08:10.585Z,16.09
2018-10-02T16:10:38.612Z,16.00
2018-10-02T16:13:06.824Z,15.97
2018-10-02T16:15:34.859Z,15.95
2018-10-02T16:18:02.925Z,15.95
2018-10-02T16:20:30.918Z,15.90
2018-10-02T16:22:58.935Z,15.89
2018-10-02T16:25:26.961Z,15.86
2018-10-02T16:27:55.000Z,15.83
2018-10-02T16:30:23.015Z,15.82
2018-10-02T16:32:51.068Z,15.79
2018-10-02T16:35:19.093Z,15.82
2018-10-02T16:37:47.117Z,15.75
2018-10-02T16:40:15.132Z,15.71
2018-10-02T16:42:43.303Z,15.70
2018-10-02T16:45:11.352Z,15.63
2018-10-02T16:47:39.427Z,15.58
2018-10-02T16:50:07.460Z,15.48
2018-10-02T16:52:36.387Z,15.41
2018-10-02T16:55:05.292Z,15.30
2018-10-02T16:57:33.319Z,15.24
2018-10-02T17:00:01.472Z,15.21
2018-10-02T17:02:29.564Z,15.19
2018-10-02T17:04:57.581Z,15.10
2018-10-02T17:07:25.748Z,15.03
2018-10-02T17:09:53.780Z,15.00
2018-10-02T17:12:21.796Z,14.94
2018-10-02T17:14:49.846Z,14.88
2018-10-02T17:17:17.867Z,14.84
2018-10-02T17:19:46.537Z,14.78
2018-10-02T17:22:14.577Z,14.73
2018-10-02T17:24:42.779Z,14.68
2018-10-02T17:27:10.928Z,14.60
2018-10-02T17:29:38.947Z,14.58
2018-10-02T17:32:08.044Z,14.53
2018-10-02T17:34:36.082Z,14.49
2018-10-02T17:37:05.247Z,14.46
2018-10-02T17:39:33.264Z,14.42
2018-10-02T17:42:01.288Z,14.38
2018-10-02T17:44:29.317Z,14.31
2018-10-02T17:46:57.407Z,14.28
2018-10-02T17:49:25.450Z,14.22
2018-10-02T17:51:53.436Z,14.18
2018-10-02T17:54:21.644Z,14.16
2018-10-02T17:56:49.660Z,14.13
2018-10-02T17:59:17.692Z,14.12
2018-10-02T18:01:45.876Z,14.08
2018-10-02T18:04:13.897Z,14.07
2018-10-02T18:06:41.912Z,14.00
2018-10-02T18:09:09.952Z,13.99
2018-10-02T18:11:38.288Z,13.93
2018-10-02T18:14:06.323Z,13.84
2018-10-02T18:16:34.352Z,13.80
2018-10-02T18:19:02.476Z,13.77
2018-10-02T18:21:30.528Z,13.78
2018-10-02T18:23:58.772Z,13.73
2018-10-02T18:26:26.859Z,13.69
2018-10-02T18:28:55.056Z,13.64
2018-10-02T18:31:23.159Z,13.64
2018-10-02T18:33:51.472Z,13.62
2018-10-02T18:36:19.524Z,13.56
2018-10-02T18:38:47.579Z,13.56
2018-10-02T18:41:15.612Z,13.53
2018-10-02T18:43:43.659Z,13.50
2018-10-02T18:46:11.700Z,13.47
2018-10-02T18:48:39.748Z,13.44
2018-10-02T18:51:07.760Z,13.38
2018-10-02T18:53:35.799Z,13.36
2018-10-02T18:56:05.063Z,13.31
2018-10-02T18:58:33.088Z,13.25
2018-10-02T19:01:01.162Z,13.23
2018-10-02T19:03:29.228Z,13.18
2018-10-02T19:05:57.312Z,13.16
2018-10-02T19:08:30.696Z,13.13
2018-10-02T19:13:04.904Z,13.10
2018-10-02T19:15:38.180Z,13.02
2018-10-02T19:18:06.218Z,12.94
2018-10-02T19:20:39.609Z,12.95
2018-10-02T19:23:07.640Z,12.92
2018-10-02T19:25:40.928Z,12.91
2018-10-02T19:28:09.107Z,12.91
2018-10-02T19:30:42.380Z,12.93
2018-10-02T19:33:10.408Z,12.92
2018-10-02T19:35:38.436Z,12.92
2018-10-02T19:38:11.878Z,12.91
2018-10-02T19:40:39.928Z,12.90
2018-10-02T19:43:07.948Z,12.86
2018-10-02T19:45:41.225Z,12.81
2018-10-02T19:48:09.260Z,12.79
2018-10-02T19:50:37.297Z,12.76
2018-10-02T19:53:06.317Z,12.77
2018-10-02T19:55:34.323Z,12.79
2018-10-02T19:58:03.245Z,12.74
2018-10-02T20:00:31.273Z,12.70
2018-10-02T20:02:59.448Z,12.71
2018-10-02T20:05:27.492Z,12.68
2018-10-02T20:07:55.516Z,12.66
2018-10-02T20:10:24.429Z,12.63
2018-10-02T20:12:52.452Z,12.61
2018-10-02T20:15:20.741Z,12.61
2018-10-02T20:17:48.768Z,12.58
2018-10-02T20:20:16.816Z,12.55
2018-10-02T20:22:44.916Z,12.49
2018-10-02T20:25:12.948Z,12.48
2018-10-02T20:27:41.112Z,12.44
2018-10-02T20:30:09.147Z,12.39
2018-10-02T20:32:37.178Z,12.35
2018-10-02T20:35:05.201Z,12.32
2018-10-02T20:37:33.226Z,12.25
2018-10-02T20:40:01.236Z,12.22
2018-10-02T20:42:29.259Z,12.19
2018-10-02T20:44:57.290Z,12.18
2018-10-02T20:47:25.311Z,12.17
2018-10-02T20:49:53.872Z,12.15
2018-10-02T20:52:21.904Z,12.14
2018-10-02T20:54:50.520Z,12.10
2018-10-02T20:57:18.559Z,12.07
2018-10-02T20:59:46.604Z,12.05
2018-10-02T21:02:14.777Z,12.04
2018-10-02T21:04:43.801Z,11.98
2018-10-02T21:07:11.828Z,11.94
2018-10-02T21:09:40.016Z,11.94
2018-10-02T21:12:08.040Z,11.93
2018-10-02T21:14:36.044Z,11.92
2018-10-02T21:17:07.132Z,11.91
2018-10-02T21:19:35.184Z,11.89
2018-10-02T21:22:03.223Z,11.85
2018-10-02T21:24:31.268Z,11.83
2018-10-02T21:26:59.284Z,11.81
2018-10-02T21:29:27.822Z,11.81
2018-10-02T21:31:55.896Z,11.79
2018-10-02T21:34:23.912Z,11.76
2018-10-02T21:36:52.078Z,11.76
2018-10-02T21:39:20.099Z,11.74
2018-10-02T21:41:48.116Z,11.74
2018-10-02T21:44:16.149Z,11.70
2018-10-02T21:46:44.160Z,11.66
2018-10-02T21:49:12.194Z,11.66
2018-10-02T21:51:40.197Z,11.65
2018-10-02T21:54:08.223Z,11.64
2018-10-02T21:56:36.275Z,11.62
2018-10-02T21:59:05.620Z,11.61
2018-10-02T22:01:33.683Z,11.60
2018-10-02T22:04:01.713Z,11.57
2018-10-02T22:06:29.740Z,11.56
2018-10-02T22:08:57.764Z,11.54
2018-10-02T22:11:25.784Z,11.53
2018-10-02T22:13:53.791Z,11.52
2018-10-02T22:16:21.808Z,11.50
2018-10-02T22:18:49.845Z,11.49
2018-10-02T22:21:17.859Z,11.50
2018-10-02T22:23:45.893Z,11.48
2018-10-02T22:26:13.916Z,11.45
2018-10-02T22:28:41.947Z,11.44
2018-10-02T22:31:09.964Z,11.43
2018-10-02T22:33:38.053Z,11.43
2018-10-02T22:36:06.015Z,11.42
2018-10-02T22:38:34.048Z,11.40
2018-10-02T22:41:02.060Z,11.40
2018-10-02T22:43:30.088Z,11.37
2018-10-02T22:45:58.095Z,11.36
2018-10-02T22:48:26.116Z,11.35
2018-10-02T22:50:54.144Z,11.34
2018-10-02T22:53:22.164Z,11.33
2018-10-02T22:55:50.196Z,11.34
2018-10-02T22:58:18.216Z,11.33
2018-10-02T23:00:47.381Z,11.34
2018-10-02T23:03:15.627Z,11.36
2018-10-02T23:05:43.691Z,11.34
2018-10-02T23:08:11.702Z,11.32
2018-10-02T23:10:39.716Z,11.28
2018-10-02T23:13:07.787Z,11.32
2018-10-02T23:15:35.810Z,11.29
2018-10-02T23:18:03.992Z,11.30
2018-10-02T23:20:32.016Z,11.32
2018-10-02T23:23:00.045Z,11.33
2018-10-02T23:25:28.057Z,11.33
2018-10-02T23:27:56.072Z,11.35
2018-10-02T23:30:24.116Z,11.38
2018-10-02T23:32:52.133Z,11.38
2018-10-02T23:35:20.156Z,11.41
2018-10-02T23:37:48.173Z,11.42
2018-10-02T23:40:16.355Z,11.43
2018-10-02T23:42:44.363Z,11.43
2018-10-02T23:45:12.405Z,11.45
2018-10-02T23:47:40.435Z,11.46
2018-10-02T23:50:08.469Z,11.50
2018-10-02T23:52:43.179Z,11.51
2018-10-02T23:55:11.197Z,11.55
2018-10-02T23:57:39.223Z,11.56
